Time;durP1;ratioP1;P1;durP2;ratioP2;P2;SDS_P1;SDS_P2;PMS_P1;PMS_P2;Temp;Humidity;BMP_temperature;BMP_pressure;BME280_temperature;BME280_humidity;BME280_pressure;Samples;Min_cycle;Max_cycle;Signal;HPM_P1;HPM_P2
2022/09/18 00:01:58;;;;;;;18.95;2.47;;;;;;;10.93;91.85;100514.97;5011962;28;20034;-76
2022/09/18 00:04:24;;;;;;;26.23;3.25;;;;;;;10.92;91.90;100514.13;5011681;28;20029;-77
2022/09/18 00:06:49;;;;;;;25.55;3.97;;;;;;;10.77;92.50;100510.41;5011168;28;20033;-76
2022/09/18 00:09:15;;;;;;;25.58;3.60;;;;;;;10.90;92.27;100509.91;5010671;28;20080;-76
2022/09/18 00:11:44;;;;;;;27.27;3.92;;;;;;;10.87;92.20;100511.91;5011118;28;20026;-76
2022/09/18 00:14:12;;;;;;;17.10;3.28;;;;;;;10.74;92.22;100505.31;5010999;28;20049;-76
2022/09/18 00:16:38;;;;;;;27.50;4.60;;;;;;;10.72;92.17;100512.75;5011170;28;20394;-76
2022/09/18 00:19:04;;;;;;;15.60;3.05;;;;;;;10.78;92.16;100517.50;5010714;28;20033;-76
2022/09/18 00:21:31;;;;;;;25.63;3.22;;;;;;;10.74;92.65;100527.81;5012530;28;20088;-76
2022/09/18 00:23:58;;;;;;;27.35;3.40;;;;;;;10.68;93.60;100522.22;5010957;28;20033;-76
2022/09/18 00:26:27;;;;;;;25.88;3.38;;;;;;;10.80;92.71;100521.72;5003850;28;20037;-76
2022/09/18 00:28:54;;;;;;;19.98;3.72;;;;;;;10.67;93.19;100521.38;5010158;28;20047;-76
2022/09/18 00:31:25;;;;;;;22.00;2.67;;;;;;;10.76;92.90;100531.22;5010842;28;20037;-76
2022/09/18 00:33:51;;;;;;;33.20;4.55;;;;;;;10.83;92.43;100525.97;5012194;28;20052;-76
2022/09/18 00:36:17;;;;;;;27.98;3.00;;;;;;;10.90;92.28;100523.44;5011965;28;20036;-76
2022/09/18 00:38:43;;;;;;;32.72;4.05;;;;;;;10.77;91.75;100526.66;5009859;28;20033;-76
2022/09/18 00:41:16;;;;;;;23.17;3.28;;;;;;;10.93;91.04;100526.63;5011938;28;20022;-76
2022/09/18 00:43:41;;;;;;;19.48;3.05;;;;;;;10.91;90.94;100533.25;5010960;28;20052;-76
2022/09/18 00:46:31;;;;;;;28.63;5.32;;;;;;;10.89;89.53;100530.72;5010602;28;20029;-76
2022/09/18 00:49:17;;;;;;;20.20;3.60;;;;;;;10.98;89.86;100529.69;5011103;28;20029;-76
2022/09/18 00:51:44;;;;;;;31.77;3.75;;;;;;;11.02;88.98;100536.47;5010742;28;20125;-75
2022/09/18 00:54:16;;;;;;;23.50;3.22;;;;;;;11.10;88.77;100539.19;5010813;28;20028;-75
2022/09/18 00:56:42;;;;;;;23.27;3.50;;;;;;;11.01;89.58;100542.88;5010374;28;20455;-77
2022/09/18 00:59:12;;;;;;;23.95;3.72;;;;;;;11.00;89.57;100543.91;5010485;28;20018;-75
2022/09/18 01:01:38;;;;;;;30.58;3.75;;;;;;;11.13;89.30;100541.53;5010410;28;20030;-76
2022/09/18 01:04:09;;;;;;;31.55;3.38;;;;;;;11.00;89.19;100538.50;5011077;28;20038;-75
2022/09/18 01:06:45;;;;;;;18.00;3.50;;;;;;;11.04;88.80;100539.00;5010252;28;20022;-77
2022/09/18 01:09:25;;;;;;;26.90;4.18;;;;;;;10.85;89.57;100540.19;5009877;28;20029;-76
2022/09/18 01:12:04;;;;;;;31.67;4.13;;;;;;;10.89;89.92;100533.44;5007756;28;20034;-75
2022/09/18 01:14:45;;;;;;;28.35;4.45;;;;;;;10.98;89.11;100526.97;5011548;28;20037;-75
2022/09/18 01:17:31;;;;;;;21.67;3.83;;;;;;;11.02;88.69;100536.47;5010275;28;20486;-76
2022/09/18 01:20:09;;;;;;;17.65;2.72;;;;;;;10.95;88.75;100527.31;5008808;28;20088;-75
2022/09/18 01:22:54;;;;;;;22.58;3.33;;;;;;;10.81;89.09;100527.97;5005591;28;20088;-75
2022/09/18 01:25:56;;;;;;;28.73;3.60;;;;;;;10.95;88.31;100524.59;5010451;28;20044;-75
2022/09/18 01:28:35;;;;;;;31.45;3.53;;;;;;;11.12;88.18;100515.47;4989408;28;20129;-76
2022/09/18 01:31:07;;;;;;;27.25;3.33;;;;;;;11.22;87.55;100522.59;5011367;28;20030;-74
2022/09/18 01:33:48;;;;;;;19.15;3.20;;;;;;;11.22;87.68;100514.44;5011531;28;20463;-75
2022/09/18 01:36:18;;;;;;;16.67;3.13;;;;;;;11.23;87.59;100516.13;5009607;28;20121;-75
2022/09/18 01:38:50;;;;;;;20.23;3.00;;;;;;;11.33;86.56;100516.78;5010117;28;20346;-75
2022/09/18 01:41:21;;;;;;;;;;;;;;;11.31;86.92;100516.13;5003168;28;20080;-75
2022/09/18 01:43:57;;;;;;;26.00;3.45;;;;;;;11.38;87.15;100526.09;5013898;28;19917;-75
2022/09/18 01:46:23;;;;;;;23.40;3.05;;;;;;;11.33;86.70;100523.06;5015230;28;20038;-75
2022/09/18 01:49:12;;;;;;;25.27;3.30;;;;;;;11.18;86.79;100535.59;5013209;28;20021;-76
2022/09/18 01:51:52;;;;;;;21.85;3.25;;;;;;;11.21;86.05;100534.41;5013595;28;20018;-75
2022/09/18 01:54:23;;;;;;;19.65;3.03;;;;;;;11.10;86.60;100536.47;5013517;28;20033;-75
2022/09/18 01:57:16;;;;;;;18.60;3.53;;;;;;;11.02;86.26;100541.91;5013615;28;20514;-76
2022/09/18 01:59:47;;;;;;;21.20;3.65;;;;;;;11.13;86.63;100530.69;5013889;28;20100;-76
2022/09/18 02:02:29;;;;;;;18.10;3.10;;;;;;;10.94;87.25;100535.59;5014350;28;20030;-75
2022/09/18 02:04:58;;;;;;;;;;;;;;;11.07;87.12;100544.06;5015721;28;20025;-75
2022/09/18 02:07:34;;;;;;;25.85;3.00;;;;;;;11.37;84.89;100534.41;5012939;28;19940;-75
2022/09/18 02:10:00;;;;;;;20.30;3.10;;;;;;;11.13;86.11;100541.53;5013915;28;20057;-76
2022/09/18 02:12:27;;;;;;;29.73;3.70;;;;;;;10.97;86.53;100549.69;5012681;28;20382;-74
2022/09/18 02:14:57;;;;;;;25.17;3.20;;;;;;;10.84;87.27;100543.91;5013123;28;20026;-75
2022/09/18 02:17:36;;;;;;;34.95;4.15;;;;;;;10.77;87.81;100532.06;5012960;28;20026;-74
2022/09/18 02:20:09;;;;;;;33.28;4.05;;;;;;;10.56;89.06;100536.09;5013038;28;20040;-75
2022/09/18 02:22:37;;;;;;;25.58;3.30;;;;;;;10.46;89.41;100529.97;5013514;28;20018;-75
2022/09/18 02:25:06;;;;;;;23.50;3.25;;;;;;;10.49;89.47;100529.63;5013093;28;20048;-74
2022/09/18 02:27:34;;;;;;;20.65;3.33;;;;;;;10.49;89.40;100523.38;5012759;28;20105;-75
2022/09/18 02:30:02;;;;;;;24.20;3.33;;;;;;;10.65;88.65;100522.56;5013937;28;20087;-76
2022/09/18 02:32:28;;;;;;;22.08;4.05;;;;;;;10.52;89.87;100523.91;5013340;28;20026;-75
2022/09/18 02:34:53;;;;;;;24.27;3.30;;;;;;;10.40;90.30;100517.09;5013051;28;20040;-74
2022/09/18 02:37:43;;;;;;;27.85;3.53;;;;;;;10.37;90.55;100520.16;5012754;28;20041;-75
2022/09/18 02:40:24;;;;;;;38.10;4.13;;;;;;;10.20;91.39;100523.78;5013053;28;20129;-74
2022/09/18 02:43:20;;;;;;;33.75;4.07;;;;;;;10.25;91.42;100521.47;5012885;28;20459;-74
2022/09/18 02:46:03;;;;;;;31.52;3.72;;;;;;;10.16;91.82;100517.00;5013077;28;20057;-76
2022/09/18 02:48:58;;;;;;;35.28;4.47;;;;;;;10.28;91.56;100504.91;5083284;23;20053;-77
2022/09/18 02:51:33;;;;;;;32.30;3.92;;;;;;;10.27;91.47;100508.63;5033896;28;20133;-76
2022/09/18 02:54:17;;;;;;;37.22;4.43;;;;;;;10.29;91.30;100517.41;5044767;28;20028;-78
2022/09/18 02:56:58;;;;;;;33.20;5.15;;;;;;;10.30;91.49;100508.28;5047402;28;20033;-78
2022/09/18 02:59:42;;;;;;;34.63;3.88;;;;;;;10.36;91.51;100512.19;5044828;28;20047;-78
2022/09/18 03:02:15;;;;;;;34.92;3.63;;;;;;;10.24;91.52;100503.56;5045371;28;20036;-78
2022/09/18 03:04:44;;;;;;;16.10;3.20;;;;;;;10.23;90.82;100502.69;5044530;28;20091;-77
2022/09/18 03:07:13;;;;;;;21.48;3.92;;;;;;;10.16;91.60;100508.88;5052552;28;20025;-78
2022/09/18 03:09:39;;;;;;;29.08;3.85;;;;;;;10.09;91.78;100500.56;5039686;28;20029;-78
2022/09/18 03:12:04;;;;;;;26.50;4.40;;;;;;;10.15;91.28;100515.31;5036553;28;20029;-78
2022/09/18 03:14:35;;;;;;;26.80;3.53;;;;;;;10.09;91.68;100499.72;5052693;28;20032;-78
2022/09/18 03:17:01;;;;;;;23.33;3.20;;;;;;;10.12;91.38;100502.13;5043120;28;20025;-78
2022/09/18 03:19:30;;;;;;;28.05;2.90;;;;;;;10.13;90.78;100511.94;5050963;28;20433;-77
2022/09/18 03:21:58;;;;;;;22.25;3.17;;;;;;;10.10;90.26;100517.66;5044650;28;20021;-77
2022/09/18 03:24:24;;;;;;;20.55;4.22;;;;;;;10.01;90.25;100504.09;5044120;28;20021;-77
2022/09/18 03:26:53;;;;;;;29.40;3.35;;;;;;;10.07;90.71;100519.69;5041167;28;20021;-77
2022/09/18 03:29:19;;;;;;;30.33;2.95;;;;;;;9.95;91.03;100504.75;5044806;28;20028;-77
2022/09/18 03:31:54;;;;;;;14.13;2.70;;;;;;;9.84;90.93;100496.94;5045024;28;20032;-77
2022/09/18 03:34:22;;;;;;;17.17;2.40;;;;;;;9.91;90.53;100500.72;5048219;28;20030;-77
2022/09/18 03:36:54;;;;;;;21.30;2.65;;;;;;;9.88;91.42;100498.31;5055084;23;20664;-80
2022/09/18 03:39:25;;;;;;;18.80;2.67;;;;;;;9.85;91.78;100493.25;5021947;28;20034;-77
2022/09/18 03:41:59;;;;;;;19.60;3.15;;;;;;;9.85;92.40;100498.66;5027271;28;20018;-77
2022/09/18 03:44:30;;;;;;;15.93;2.40;;;;;;;9.97;92.15;100494.63;5021843;28;20541;-77
2022/09/18 03:47:01;;;;;;;18.63;2.97;;;;;;;9.84;92.54;100496.94;5020160;28;20018;-78
2022/09/18 03:49:37;;;;;;;25.25;3.38;;;;;;;9.99;93.39;100494.47;4992918;28;20112;-77
2022/09/18 03:52:20;;;;;;;17.67;2.65;;;;;;;9.83;93.43;100508.75;5004840;28;20045;-77
2022/09/18 03:54:46;;;;;;;17.33;3.00;;;;;;;9.80;93.67;100501.00;5011608;28;20057;-82
2022/09/18 03:57:14;;;;;;;22.92;3.55;;;;;;;9.79;93.92;100493.91;5003954;28;20131;-77
2022/09/18 04:00:22;;;;;;;19.27;2.90;;;;;;;9.69;93.34;100493.16;5003241;28;20065;-80
2022/09/18 04:03:08;;;;;;;19.67;3.60;;;;;;;9.82;93.11;100498.97;4996124;28;20066;-78
2022/09/18 04:05:33;;;;;;;22.33;3.22;;;;;;;9.71;93.11;100493.84;5007273;28;20052;-77
2022/09/18 04:08:04;;;;;;;23.23;3.10;;;;;;;9.71;92.99;100497.38;5008985;28;20029;-77
2022/09/18 04:10:35;;;;;;;27.42;4.85;;;;;;;9.67;93.50;100503.28;5012596;28;20045;-77
2022/09/18 04:13:06;;;;;;;19.58;2.90;;;;;;;9.79;93.44;100510.13;5005043;28;20085;-77
2022/09/18 04:15:37;;;;;;;23.65;3.00;;;;;;;9.84;93.20;100502.34;5006807;28;20036;-77
2022/09/18 04:18:20;;;;;;;25.73;4.40;;;;;;;9.70;93.06;100489.44;5004832;28;20018;-78
2022/09/18 04:20:46;;;;;;;28.80;2.95;;;;;;;9.64;93.77;100506.31;5004219;28;20489;-78
2022/09/18 04:23:13;;;;;;;22.75;2.70;;;;;;;9.78;93.85;100497.59;5004063;28;20026;-78
2022/09/18 04:25:41;;;;;;;17.35;2.47;;;;;;;9.73;92.74;100489.97;5004880;28;20029;-78
2022/09/18 04:28:07;;;;;;;23.08;3.92;;;;;;;9.87;92.13;100502.03;4999353;28;20019;-78
2022/09/18 04:30:32;;;;;;;23.60;2.70;;;;;;;9.83;93.30;100516.03;5000376;28;20029;-78
2022/09/18 04:32:58;;;;;;;31.70;4.57;;;;;;;9.68;94.30;100518.50;5001391;28;20056;-77
2022/09/18 04:35:23;;;;;;;17.65;2.75;;;;;;;9.60;95.02;100507.66;5010985;28;20017;-77
2022/09/18 04:37:49;;;;;;;26.63;2.92;;;;;;;9.52;95.19;100509.31;5003068;28;20026;-77
2022/09/18 04:40:14;;;;;;;20.08;2.75;;;;;;;9.48;95.15;100502.50;5008305;28;20049;-78
2022/09/18 04:42:39;;;;;;;21.23;3.35;;;;;;;9.33;96.05;100520.34;5002708;28;20030;-78
2022/09/18 04:45:07;;;;;;;25.25;3.08;;;;;;;9.45;95.85;100520.88;5008563;28;20120;-81
2022/09/18 04:47:33;;;;;;;20.60;2.92;;;;;;;9.56;95.42;100514.38;5001817;28;20026;-76
2022/09/18 04:49:58;;;;;;;26.40;2.85;;;;;;;9.47;95.86;100505.38;5003462;28;20030;-78
2022/09/18 04:52:23;;;;;;;28.70;3.13;;;;;;;9.26;95.81;100513.88;5005014;28;20031;-79
2022/09/18 04:54:49;;;;;;;17.73;2.50;;;;;;;9.34;96.41;100500.41;5006288;28;20022;-77
2022/09/18 04:57:14;;;;;;;19.30;2.60;;;;;;;9.52;95.46;100503.06;5002939;28;20026;-78
2022/09/18 04:59:40;;;;;;;20.30;3.53;;;;;;;9.49;95.82;100498.81;5005951;28;20025;-79
2022/09/18 05:02:05;;;;;;;20.48;3.03;;;;;;;9.43;95.40;100504.00;5001952;28;20018;-75
2022/09/18 05:04:30;;;;;;;19.38;2.53;;;;;;;9.29;96.38;100513.53;4997978;28;20034;-78
2022/09/18 05:06:56;;;;;;;21.15;3.40;;;;;;;9.25;96.58;100506.75;5008336;28;20116;-77
2022/09/18 05:09:21;;;;;;;13.88;2.28;;;;;;;9.42;96.32;100496.91;5001996;28;20116;-78
2022/09/18 05:11:47;;;;;;;13.27;2.10;;;;;;;9.45;95.82;100502.84;5010460;28;20049;-78
2022/09/18 05:14:12;;;;;;;15.90;2.10;;;;;;;9.47;95.89;100499.97;5004885;28;20029;-78
2022/09/18 05:16:37;;;;;;;13.77;2.75;;;;;;;9.39;95.37;100508.88;4995499;28;20032;-77
2022/09/18 05:19:03;;;;;;;25.92;3.30;;;;;;;9.41;95.87;100506.88;5012736;28;20018;-80
2022/09/18 05:21:29;;;;;;;17.13;2.50;;;;;;;9.43;96.33;100510.25;5002110;28;20014;-78
2022/09/18 05:23:54;;;;;;;15.48;2.67;;;;;;;9.52;95.79;100509.31;5025912;28;20060;-76
2022/09/18 05:26:19;;;;;;;16.98;2.90;;;;;;;9.59;96.32;100514.06;4995122;28;20109;-80
2022/09/18 05:28:48;;;;;;;22.08;2.45;;;;;;;9.57;96.41;100518.78;5004979;28;20512;-77
2022/09/18 05:31:14;;;;;;;24.77;2.75;;;;;;;9.51;96.84;100523.81;5012633;28;20033;-78
2022/09/18 05:33:40;;;;;;;17.48;2.95;;;;;;;9.55;97.45;100528.91;5003696;28;20026;-77
2022/09/18 05:36:06;;;;;;;29.73;3.58;;;;;;;9.64;97.87;100522.53;5011372;28;20026;-77
2022/09/18 05:38:31;;;;;;;20.80;3.50;;;;;;;9.50;98.46;100532.91;5013493;28;20030;-76
2022/09/18 05:41:00;;;;;;;20.20;2.90;;;;;;;9.45;99.25;100540.69;5005899;28;20022;-77
2022/09/18 05:43:26;;;;;;;19.60;2.88;;;;;;;9.37;98.90;100535.19;5001844;28;20033;-77
2022/09/18 05:45:51;;;;;;;31.08;4.07;;;;;;;9.47;98.84;100525.16;5010816;28;20030;-77
2022/09/18 05:48:17;;;;;;;26.40;3.63;;;;;;;9.34;99.15;100516.63;5001052;28;20095;-78
2022/09/18 05:50:42;;;;;;;25.48;3.03;;;;;;;9.38;99.50;100517.97;5009560;28;20488;-77
2022/09/18 05:53:16;;;;;;;32.08;3.80;;;;;;;9.28;99.19;100525.34;5005541;28;20029;-78
2022/09/18 05:55:41;;;;;;;25.92;3.60;;;;;;;9.38;99.08;100512.56;5005331;28;20026;-78
2022/09/18 05:58:11;;;;;;;20.08;2.75;;;;;;;9.43;98.62;100515.66;5003438;28;20025;-78
2022/09/18 06:00:37;;;;;;;27.50;3.83;;;;;;;9.27;98.81;100517.41;5007013;28;20037;-77
2022/09/18 06:03:05;;;;;;;21.33;3.30;;;;;;;9.49;98.78;100536.63;5013339;28;20018;-78
2022/09/18 06:05:32;;;;;;;24.92;2.72;;;;;;;9.60;98.28;100526.56;5005485;28;20022;-78
2022/09/18 06:07:58;;;;;;;27.38;4.10;;;;;;;9.58;98.28;100528.56;5011962;28;20469;-77
2022/09/18 06:10:24;;;;;;;25.23;4.45;;;;;;;9.57;98.98;100529.56;4998962;28;20109;-78
2022/09/18 06:12:50;;;;;;;21.13;3.70;;;;;;;9.65;98.29;100535.91;5002964;28;20110;-78
2022/09/18 06:15:15;;;;;;;18.42;2.75;;;;;;;9.82;97.91;100536.81;5000928;28;20045;-78
2022/09/18 06:17:41;;;;;;;24.38;3.20;;;;;;;9.81;97.80;100526.16;5004941;28;20029;-76
2022/09/18 06:20:07;;;;;;;17.85;2.63;;;;;;;9.94;97.33;100519.28;5001901;28;20612;-76
2022/09/18 06:22:34;;;;;;;29.08;3.95;;;;;;;9.96;97.39;100527.25;5004524;28;20026;-80
2022/09/18 06:25:00;;;;;;;33.45;3.67;;;;;;;9.90;97.04;100523.31;5013309;28;20041;-78
2022/09/18 06:27:25;;;;;;;27.90;4.78;;;;;;;10.04;97.33;100520.03;5009290;28;20456;-79
2022/09/18 06:29:51;;;;;;;15.45;2.42;;;;;;;9.91;97.09;100527.75;5008642;28;20053;-77
2022/09/18 06:32:18;;;;;;;22.25;3.15;;;;;;;9.83;96.88;100516.88;4995942;28;20068;-78
2022/09/18 06:34:43;;;;;;;25.42;2.97;;;;;;;9.89;97.98;100510.81;5004086;28;20030;-76
2022/09/18 06:37:10;;;;;;;19.38;3.45;;;;;;;9.81;98.29;100513.50;5006412;28;20084;-77
2022/09/18 06:39:35;;;;;;;22.45;3.35;;;;;;;9.85;97.40;100514.88;5005057;28;20021;-77
2022/09/18 06:42:01;;;;;;;27.10;2.67;;;;;;;9.79;97.51;100520.94;5003195;28;20038;-78
2022/09/18 06:44:26;;;;;;;23.98;2.60;;;;;;;9.81;98.42;100529.72;5008168;28;20030;-81
2022/09/18 06:46:51;;;;;;;22.55;3.30;;;;;;;9.63;98.10;100531.66;5005463;28;20037;-78
2022/09/18 06:49:17;;;;;;;19.10;2.80;;;;;;;9.72;98.68;100519.88;5004130;28;20037;-78
2022/09/18 06:51:44;;;;;;;24.65;2.97;;;;;;;9.74;99.83;100528.66;5013352;28;20026;-78
2022/09/18 06:54:12;;;;;;;33.30;3.85;;;;;;;9.68;100.00;100523.91;5009073;28;20026;-80
2022/09/18 06:56:37;;;;;;;23.63;3.70;;;;;;;9.58;100.00;100517.75;5010108;28;20114;-78
2022/09/18 06:59:03;;;;;;;22.77;4.25;;;;;;;9.61;100.00;100518.28;5014483;28;20109;-79
2022/09/18 07:01:28;;;;;;;26.10;3.10;;;;;;;9.65;99.97;100518.81;5010113;28;20026;-79
2022/09/18 07:03:54;;;;;;;22.77;2.88;;;;;;;9.65;99.42;100518.81;5019398;28;20034;-78
2022/09/18 07:06:19;;;;;;;23.13;3.17;;;;;;;9.55;99.12;100518.94;5015242;28;20030;-78
2022/09/18 07:08:44;;;;;;;28.77;4.35;;;;;;;9.57;99.58;100521.47;5012505;28;20026;-79
2022/09/18 07:11:10;;;;;;;29.98;3.40;;;;;;;9.65;98.12;100514.28;5022075;28;20025;-80
2022/09/18 07:13:36;;;;;;;19.90;2.85;;;;;;;9.77;98.50;100517.53;5013804;28;20026;-78
2022/09/18 07:16:02;;;;;;;22.13;3.03;;;;;;;9.82;98.80;100527.84;5022247;28;20029;-78
2022/09/18 07:18:27;;;;;;;25.52;2.97;;;;;;;9.94;98.92;100513.88;5016095;28;20014;-80
2022/09/18 07:20:53;;;;;;;21.00;2.67;;;;;;;9.94;98.78;100510.34;5022509;28;20026;-80
2022/09/18 07:23:21;;;;;;;16.52;2.45;;;;;;;9.85;98.04;100514.03;5013792;28;20034;-80
2022/09/18 07:25:46;;;;;;;27.00;3.10;;;;;;;9.81;98.35;100502.69;5008041;28;20073;-77
2022/09/18 07:28:11;;;;;;;20.85;3.45;;;;;;;9.93;98.41;100511.34;4995213;28;20045;-77
2022/09/18 07:30:38;;;;;;;22.48;3.85;;;;;;;10.02;96.12;100510.38;4998695;28;20018;-77
2022/09/18 07:33:05;;;;;;;28.80;3.67;;;;;;;10.18;96.86;100506.88;4999153;28;20030;-78
2022/09/18 07:35:31;;;;;;;23.05;3.53;;;;;;;10.25;97.13;100507.94;5006648;28;20026;-77
2022/09/18 07:38:01;;;;;;;21.15;3.38;;;;;;;10.38;96.22;100516.44;5003441;28;20112;-77
2022/09/18 07:40:28;;;;;;;18.70;2.75;;;;;;;10.10;96.04;100507.69;5008659;28;20048;-80
2022/09/18 07:43:02;;;;;;;21.10;3.65;;;;;;;10.13;96.59;100503.81;5011291;28;20372;-78
2022/09/18 07:45:28;;;;;;;24.27;3.70;;;;;;;10.05;96.63;100504.63;5003933;28;20025;-79
2022/09/18 07:47:54;;;;;;;23.80;3.42;;;;;;;10.08;97.91;100501.59;4998760;28;20042;-79
2022/09/18 07:50:51;;;;;;;23.77;3.45;;;;;;;10.56;95.58;100503.63;5010741;28;20058;-78
2022/09/18 07:53:17;;;;;;;14.10;3.00;;;;;;;10.49;94.70;100502.56;5000748;28;20025;-79
2022/09/18 07:55:46;;;;;;;17.15;3.00;;;;;;;10.52;95.00;100502.25;5003864;28;20026;-77
2022/09/18 07:58:12;;;;;;;23.55;2.95;;;;;;;10.53;94.89;100509.34;5005923;28;20013;-78
2022/09/18 08:00:38;;;;;;;15.18;2.42;;;;;;;10.49;94.56;100507.97;5008243;28;20026;-78
2022/09/18 08:03:06;;;;;;;24.02;3.63;;;;;;;10.38;95.26;100505.59;5010222;28;20118;-77
2022/09/18 08:05:31;;;;;;;17.70;3.17;;;;;;;10.52;93.61;100501.41;5002778;28;20120;-78
2022/09/18 08:08:02;;;;;;;19.30;3.72;;;;;;;10.47;94.66;100504.59;5007966;28;20117;-76
2022/09/18 08:10:30;;;;;;;21.13;2.95;;;;;;;10.76;92.64;100498.72;5002256;28;20053;-78
2022/09/18 08:12:55;;;;;;;16.35;3.38;;;;;;;10.99;91.69;100504.28;4990432;28;20038;-78
2022/09/18 08:15:20;;;;;;;22.90;4.57;;;;;;;10.81;92.42;100517.16;5003896;28;20022;-78
2022/09/18 08:17:46;;;;;;;15.00;3.15;;;;;;;10.72;92.79;100501.94;5011728;28;20025;-78
2022/09/18 08:20:12;;;;;;;24.13;3.58;;;;;;;10.76;93.17;100493.31;5010720;28;20093;-77
2022/09/18 08:22:38;;;;;;;31.23;4.43;;;;;;;10.87;92.46;100500.22;5004043;28;20029;-79
2022/09/18 08:25:05;;;;;;;21.88;3.47;;;;;;;11.10;93.63;100494.97;4991717;28;20025;-78
2022/09/18 08:27:30;;;;;;;28.90;4.35;;;;;;;10.93;92.76;100510.38;4998444;28;20030;-73
2022/09/18 08:29:57;;;;;;;20.15;3.22;;;;;;;10.89;92.33;100503.63;4997094;28;20045;-73
2022/09/18 08:32:22;;;;;;;15.85;2.67;;;;;;;11.29;90.08;100507.31;5002786;28;20041;-72
2022/09/18 08:34:48;;;;;;;26.10;3.50;;;;;;;11.30;90.23;100509.00;5001765;28;20029;-71
2022/09/18 08:37:13;;;;;;;17.17;3.47;;;;;;;11.76;89.68;100495.69;5007798;28;20042;-74
2022/09/18 08:39:39;;;;;;;21.00;3.20;;;;;;;11.89;88.24;100512.28;5007682;28;20041;-72
2022/09/18 08:42:26;;;;;;;16.58;3.28;;;;;;;11.45;90.79;100520.00;5002145;28;20057;-73
2022/09/18 08:45:00;;;;;;;22.83;2.92;;;;;;;11.08;91.19;100519.53;5004306;28;20061;-73
2022/09/18 08:47:32;;;;;;;22.83;3.15;;;;;;;10.52;94.57;100513.06;4987736;28;20032;-74
2022/09/18 08:50:08;;;;;;;24.35;4.53;;;;;;;10.46;94.86;100502.91;5001959;28;20122;-73
2022/09/18 08:52:40;;;;;;;26.65;3.05;;;;;;;10.58;95.02;100500.72;5008490;28;20103;-74
2022/09/18 08:55:10;;;;;;;35.03;3.80;;;;;;;10.96;96.63;100493.81;4999060;28;20044;-74
2022/09/18 08:57:38;;;;;;;29.83;4.55;;;;;;;11.24;95.77;100485.31;5006457;28;20042;-74
2022/09/18 09:00:11;;;;;;;25.70;3.92;;;;;;;11.47;92.40;100488.97;5009806;28;20026;-75
2022/09/18 09:02:44;;;;;;;26.90;2.90;;;;;;;11.74;93.72;100486.88;5002204;28;20028;-74
2022/09/18 09:05:18;;;;;;;18.73;2.40;;;;;;;11.76;92.74;100487.53;5009824;28;20026;-74
2022/09/18 09:08:08;;;;;;;21.77;3.17;;;;;;;11.73;93.22;100480.56;5008952;28;20092;-74
2022/09/18 09:11:21;;;;;;;24.48;3.47;;;;;;;12.07;93.51;100483.03;4999335;28;20121;-75
2022/09/18 09:14:01;;;;;;;;;;;;;;;12.09;94.16;100486.41;4991456;28;20050;-75
2022/09/18 09:16:43;;;;;;;16.35;2.92;;;;;;;12.05;92.57;100479.63;5000744;28;20013;-74
2022/09/18 09:19:27;;;;;;;;;;;;;;;11.84;91.24;100482.09;4999838;28;20022;-73
2022/09/18 09:22:23;;;;;;;23.10;3.58;;;;;;;11.92;91.89;100468.50;5009237;28;20464;-75
2022/09/18 09:25:19;;;;;;;14.85;2.97;;;;;;;12.10;88.47;100470.97;4991774;28;20045;-73
2022/09/18 09:27:57;;;;;;;16.85;2.65;;;;;;;12.28;88.11;100479.69;4989032;28;20033;-74
2022/09/18 09:30:29;;;;;;;8.73;1.90;;;;;;;11.73;81.62;100480.56;5002403;28;20033;-73
2022/09/18 09:33:05;;;;;;;13.60;2.10;;;;;;;11.91;83.00;100488.50;4999715;28;20110;-73
2022/09/18 09:35:37;;;;;;;15.80;2.63;;;;;;;11.57;84.27;100486.91;4997756;28;20023;-72
2022/09/18 09:38:30;;;;;;;14.52;2.17;;;;;;;11.56;82.54;100484.38;4998187;28;20026;-72
2022/09/18 09:40:58;;;;;;;13.07;2.00;;;;;;;11.69;80.94;100471.13;5018028;28;20022;-71
2022/09/18 09:43:30;;;;;;;12.00;2.17;;;;;;;12.06;81.72;100469.63;5002213;28;20033;-73
2022/09/18 09:46:02;;;;;;;9.80;1.73;;;;;;;11.79;80.95;100462.75;5008442;28;20071;-75
2022/09/18 09:49:19;;;;;;;13.05;2.55;;;;;;;11.73;82.31;100458.03;5000612;28;20026;-72
2022/09/18 09:52:00;;;;;;;16.23;2.58;;;;;;;11.76;81.86;100463.13;4982310;28;20124;-72
2022/09/18 09:54:26;;;;;;;12.15;2.05;;;;;;;11.75;82.05;100450.59;5012855;28;20018;-71
2022/09/18 09:57:16;;;;;;;6.88;2.00;;;;;;;12.17;80.49;100440.22;5008301;28;20029;-74
2022/09/18 10:00:05;;;;;;;13.75;2.38;;;;;;;12.21;81.15;100446.97;4989837;28;20018;-72
2022/09/18 10:02:39;;;;;;;17.92;3.10;;;;;;;12.45;80.83;100458.69;5001829;28;20496;-73
2022/09/18 10:05:17;;;;;;;17.20;1.95;;;;;;;12.10;81.07;100450.09;5011874;28;20036;-72
2022/09/18 10:07:51;;;;;;;10.00;2.72;;;;;;;12.22;81.04;100458.69;5012370;28;20030;-73
2022/09/18 10:10:45;;;;;;;17.92;2.45;;;;;;;11.97;82.02;100449.81;4996621;28;20064;-72
2022/09/18 10:13:17;;;;;;;14.55;2.30;;;;;;;12.11;83.10;100457.19;4998332;28;20034;-73
2022/09/18 10:15:58;;;;;;;10.68;2.83;;;;;;;11.86;82.38;100459.19;5008058;28;20022;-73
2022/09/18 10:18:27;;;;;;;15.75;2.90;;;;;;;11.85;83.82;100451.25;4996540;28;20061;-74
2022/09/18 10:21:00;;;;;;;16.40;2.50;;;;;;;12.04;82.42;100461.66;5008469;28;20034;-73
2022/09/18 10:23:38;;;;;;;7.60;2.10;;;;;;;12.46;80.64;100465.81;5012002;28;20526;-73
2022/09/18 10:26:04;;;;;;;12.90;2.75;;;;;;;12.29;81.12;100458.81;5011066;28;20026;-73
2022/09/18 10:28:30;;;;;;;15.70;2.50;;;;;;;12.51;82.82;100463.38;4992798;28;20026;-73
2022/09/18 10:31:11;;;;;;;15.70;2.90;;;;;;;12.37;79.80;100477.75;5006500;28;20033;-73
2022/09/18 10:33:46;;;;;;;11.15;2.50;;;;;;;12.28;78.71;100467.97;5007915;28;20104;-73
2022/09/18 10:36:32;;;;;;;13.15;2.53;;;;;;;12.38;79.77;100468.56;5011698;28;20025;-74
2022/09/18 10:38:58;;;;;;;13.00;2.00;;;;;;;12.39;77.98;100464.84;5008993;28;20137;-74
2022/09/18 10:41:26;;;;;;;11.65;2.80;;;;;;;12.72;77.24;100450.00;5010873;28;20029;-74
2022/09/18 10:44:10;;;;;;;11.38;2.15;;;;;;;13.52;72.55;100434.97;5011327;28;20034;-74
2022/09/18 10:46:39;;;;;;;11.90;2.72;;;;;;;13.36;75.41;100435.97;5006163;28;20035;-74
2022/09/18 10:49:19;;;;;;;16.77;2.55;;;;;;;12.98;77.08;100440.59;5016909;28;20058;-74
2022/09/18 10:51:45;;;;;;;11.40;2.45;;;;;;;12.48;77.79;100458.34;5011477;28;20061;-74
2022/09/18 10:54:18;;;;;;;11.13;2.85;;;;;;;12.19;80.55;100465.31;4999998;28;20033;-73
2022/09/18 10:56:46;;;;;;;21.38;2.60;;;;;;;11.38;87.23;100461.03;4991285;28;20057;-74
2022/09/18 10:59:27;;;;;;;25.25;3.53;;;;;;;9.95;94.82;100496.66;5007919;28;20014;-73
2022/09/18 11:02:56;;;;;;;;;;;;;;;;;;;;;
2022/09/18 11:05:53;;;;;;;9.48;1.83;;;;;;;9.50;96.54;100468.06;4997045;28;20061;-74
2022/09/18 11:09:04;;;;;;;8.50;1.55;;;;;;;9.59;94.45;100455.44;5006219;28;20042;-73
2022/09/18 11:11:50;;;;;;;16.52;2.72;;;;;;;9.79;94.35;100461.44;4997604;28;20041;-75
2022/09/18 11:14:32;;;;;;;6.32;1.77;;;;;;;9.89;93.25;100459.44;5004357;28;20034;-73
2022/09/18 11:17:13;;;;;;;10.85;1.60;;;;;;;10.37;90.19;100444.38;5001789;28;20023;-73
2022/09/18 11:20:17;;;;;;;;;;;;;;;;;;;;;
2022/09/18 11:23:39;;;;;;;16.35;2.13;;;;;;;11.27;88.21;100430.75;5002388;28;20038;-74
2022/09/18 11:26:50;;;;;;;14.02;2.35;;;;;;;11.55;85.46;100418.47;5003114;28;20117;-75
2022/09/18 11:29:30;;;;;;;15.07;3.08;;;;;;;11.69;83.21;100415.00;4931338;29;20043;-74
2022/09/18 11:32:25;;;;;;;14.55;2.00;;;;;;;12.12;84.32;100426.31;5001958;28;20408;-75
2022/09/18 11:34:54;;;;;;;8.40;1.63;;;;;;;12.44;81.74;100424.41;4985799;28;20037;-76
2022/09/18 11:37:33;;;;;;;9.48;2.08;;;;;;;12.28;79.59;100416.41;5005827;28;20435;-74
2022/09/18 11:41:03;;;;;;;13.73;2.05;;;;;;;12.36;79.94;100427.19;5005059;28;20547;-74
2022/09/18 11:43:40;;;;;;;5.88;1.60;;;;;;;12.66;75.71;100439.88;5000365;28;20068;-76
2022/09/18 11:46:47;;;;;;;11.57;1.40;;;;;;;12.62;74.89;100405.09;5006063;28;20484;-75
2022/09/18 11:49:21;;;;;;;10.48;2.10;;;;;;;12.99;73.20;100417.84;4991910;28;20388;-73
2022/09/18 11:52:12;;;;;;;13.52;1.98;;;;;;;12.90;73.29;100435.22;4998865;28;20025;-74